createdAt,value
2018-07-23T00:03:29.215Z,20.43
2018-07-23T00:08:33.134Z,20.35
2018-07-23T00:13:38.001Z,20.40
2018-07-23T00:18:42.357Z,19.91
2018-07-23T00:23:46.171Z,20.23
2018-07-23T00:28:50.920Z,20.37
2018-07-23T00:33:55.275Z,19.80
2018-07-23T00:38:58.868Z,20.19
2018-07-23T00:44:03.221Z,19.80
2018-07-23T00:49:07.341Z,20.21
2018-07-23T00:54:11.372Z,19.93
2018-07-23T00:59:15.397Z,20.21
2018-07-23T01:04:19.911Z,20.06
2018-07-23T01:09:24.059Z,19.64
2018-07-23T01:14:28.457Z,19.88
2018-07-23T01:19:32.110Z,19.67
2018-07-23T01:24:35.712Z,19.93
2018-07-23T01:29:39.357Z,19.81
2018-07-23T01:34:43.571Z,19.58
2018-07-23T01:39:47.685Z,19.85
2018-07-23T01:44:51.770Z,19.53
2018-07-23T01:49:55.766Z,19.90
2018-07-23T01:54:59.440Z,19.89
2018-07-23T02:00:03.625Z,19.87
2018-07-23T02:05:08.389Z,19.58
2018-07-23T02:10:11.858Z,19.91
2018-07-23T02:15:16.441Z,19.77
2018-07-23T02:20:20.414Z,19.60
2018-07-23T02:25:24.778Z,19.58
2018-07-23T02:30:28.370Z,19.81
2018-07-23T02:35:32.203Z,20.04
2018-07-23T02:40:35.782Z,19.67
2018-07-23T02:45:39.293Z,19.57
2018-07-23T02:50:42.827Z,19.63
2018-07-23T02:55:46.381Z,19.93
2018-07-23T03:00:49.929Z,19.60
2018-07-23T03:05:53.628Z,19.51
2018-07-23T03:10:57.450Z,19.44
2018-07-23T03:16:00.963Z,19.40
2018-07-23T03:21:04.635Z,19.51
2018-07-23T03:26:08.137Z,19.29
2018-07-23T03:31:11.841Z,19.77
2018-07-23T03:36:15.292Z,19.37
2018-07-23T03:41:18.799Z,19.36
2018-07-23T03:46:22.451Z,19.67
2018-07-23T03:51:26.291Z,19.87
2018-07-23T03:56:29.841Z,19.48
2018-07-23T04:01:33.314Z,19.79
2018-07-23T04:06:36.827Z,20.21
2018-07-23T04:11:40.373Z,20.24
2018-07-23T04:16:43.946Z,20.17
2018-07-23T04:21:47.508Z,19.98
2018-07-23T04:26:51.022Z,20.01
2018-07-23T04:31:54.528Z,20.32
2018-07-23T04:36:58.214Z,20.50
2018-07-23T04:42:02.190Z,20.70
2018-07-23T04:47:05.946Z,20.95
2018-07-23T04:52:09.554Z,21.24
2018-07-23T04:57:13.133Z,21.49
2018-07-23T05:02:16.594Z,21.56
2018-07-23T05:07:20.046Z,21.75
2018-07-23T05:12:23.587Z,21.72
2018-07-23T05:17:27.151Z,22.30
2018-07-23T05:22:30.783Z,21.81
2018-07-23T05:27:34.290Z,21.93
2018-07-23T05:32:37.797Z,21.96
2018-07-23T05:37:41.483Z,22.18
2018-07-23T05:42:45.268Z,22.10
2018-07-23T05:47:48.779Z,22.11
2018-07-23T05:52:52.481Z,22.31
2018-07-23T05:57:56.238Z,21.75
2018-07-23T06:02:59.751Z,21.87
2018-07-23T06:08:03.563Z,21.87
2018-07-23T06:13:07.932Z,22.37
2018-07-23T06:18:11.444Z,22.27
2018-07-23T06:23:15.181Z,21.75
2018-07-23T06:28:18.893Z,22.14
2018-07-23T06:33:22.386Z,21.78
2018-07-23T06:38:25.871Z,21.21
2018-07-23T06:43:29.581Z,21.43
2018-07-23T06:48:33.177Z,21.04
2018-07-23T06:53:36.665Z,21.27
2018-07-23T06:58:40.210Z,21.55
2018-07-23T07:03:43.713Z,21.43
2018-07-23T07:08:47.406Z,21.27
2018-07-23T07:13:50.879Z,20.67
2018-07-23T07:18:54.563Z,21.03
2018-07-23T07:23:58.505Z,20.84
2018-07-23T07:29:02.029Z,20.45
2018-07-23T07:34:05.798Z,20.93
2018-07-23T07:39:11.498Z,20.67
2018-07-23T07:44:14.964Z,21.05
2018-07-23T07:49:18.544Z,21.02
2018-07-23T07:54:22.066Z,20.76
2018-07-23T07:59:25.543Z,20.88
2018-07-23T08:04:29.073Z,20.94
2018-07-23T08:09:32.626Z,21.02
2018-07-23T08:14:36.183Z,20.79
2018-07-23T08:19:39.875Z,20.98
2018-07-23T08:24:43.750Z,21.05
2018-07-23T08:29:47.165Z,20.64
2018-07-23T08:34:50.709Z,21.02
2018-07-23T08:39:54.233Z,20.71
2018-07-23T08:44:58.105Z,20.88
2018-07-23T08:50:01.780Z,20.63
2018-07-23T08:55:05.745Z,21.01
2018-07-23T09:00:13.084Z,21.01
2018-07-23T09:10:25.572Z,20.61
2018-07-23T09:15:29.053Z,20.76
2018-07-23T09:20:32.558Z,20.54
2018-07-23T09:25:41.405Z,20.65
2018-07-23T09:30:52.101Z,20.81
2018-07-23T09:35:55.539Z,20.91
2018-07-23T09:40:59.234Z,20.52
2018-07-23T09:46:02.776Z,20.83
2018-07-23T09:51:07.116Z,20.97
2018-07-23T09:56:10.629Z,20.82
2018-07-23T10:01:17.967Z,20.47
2018-07-23T10:06:21.453Z,20.55
2018-07-23T10:11:24.877Z,20.52
2018-07-23T10:16:28.513Z,20.49
2018-07-23T10:21:32.190Z,20.91
2018-07-23T10:26:35.805Z,21.04
2018-07-23T10:31:39.282Z,20.50
2018-07-23T10:36:42.949Z,20.66
2018-07-23T10:41:46.769Z,20.72
2018-07-23T10:46:50.381Z,20.92
2018-07-23T10:51:53.879Z,20.41
2018-07-23T10:56:57.518Z,20.33
2018-07-23T11:02:01.075Z,20.32
2018-07-23T11:07:04.664Z,20.42
2018-07-23T11:12:08.988Z,20.52
2018-07-23T11:17:12.557Z,20.69
2018-07-23T11:22:16.114Z,20.71
2018-07-23T11:27:19.849Z,20.70
2018-07-23T11:32:23.333Z,20.30
2018-07-23T11:37:27.129Z,20.25
2018-07-23T11:42:30.896Z,20.50
2018-07-23T11:47:34.603Z,20.77
2018-07-23T11:52:38.113Z,20.72
2018-07-23T11:57:41.598Z,20.67
2018-07-23T12:02:45.257Z,20.70
2018-07-23T12:07:49.124Z,20.45
2018-07-23T12:12:52.760Z,20.08
2018-07-23T12:17:56.252Z,20.18
2018-07-23T12:22:59.722Z,20.60
2018-07-23T12:28:03.265Z,20.90
2018-07-23T12:33:06.805Z,20.41
2018-07-23T12:38:10.228Z,20.06
2018-07-23T12:43:13.721Z,19.74
2018-07-23T12:48:17.251Z,19.63
2018-07-23T12:53:21.443Z,19.71
2018-07-23T12:58:25.145Z,19.83
2018-07-23T13:03:28.888Z,19.71
2018-07-23T13:08:32.495Z,19.81
2018-07-23T13:13:36.322Z,19.54
2018-07-23T13:18:40.250Z,19.79
2018-07-23T13:23:43.962Z,19.60
2018-07-23T13:28:47.697Z,19.85
2018-07-23T13:33:51.292Z,19.58
2018-07-23T13:38:55.133Z,19.18
2018-07-23T13:43:58.857Z,19.33
2018-07-23T13:49:02.467Z,19.54
2018-07-23T13:54:06.142Z,19.67
2018-07-23T13:59:09.804Z,19.44
2018-07-23T14:04:13.559Z,19.63
2018-07-23T14:09:17.576Z,19.37
2018-07-23T14:14:21.372Z,19.62
2018-07-23T14:19:24.783Z,19.74
2018-07-23T14:24:28.485Z,19.78
2018-07-23T14:29:31.985Z,19.80
2018-07-23T14:34:35.521Z,19.91
2018-07-23T14:39:39.554Z,20.01
2018-07-23T14:44:43.020Z,19.50
2018-07-23T14:49:46.709Z,19.69
2018-07-23T14:54:50.307Z,19.27
2018-07-23T14:59:54.867Z,19.42
2018-07-23T15:04:58.646Z,19.35
2018-07-23T15:10:02.302Z,19.34
2018-07-23T15:15:05.990Z,19.09
2018-07-23T15:20:09.617Z,19.30
2018-07-23T15:25:13.431Z,19.15
2018-07-23T15:30:16.935Z,19.28
2018-07-23T15:35:20.492Z,18.70
2018-07-23T15:40:24.201Z,19.08
2018-07-23T15:45:28.137Z,19.14
2018-07-23T15:50:31.753Z,19.00
2018-07-23T15:55:35.341Z,19.04
2018-07-23T16:00:38.814Z,19.76
2018-07-23T16:05:42.590Z,19.64
2018-07-23T16:10:46.440Z,20.34
2018-07-23T16:15:49.882Z,20.41
2018-07-23T16:20:53.517Z,20.23
2018-07-23T16:25:57.157Z,20.47
2018-07-23T16:31:00.895Z,19.93
2018-07-23T16:36:04.462Z,20.43
2018-07-23T16:41:08.120Z,20.68
2018-07-23T16:46:11.713Z,20.18
2018-07-23T16:51:15.234Z,20.37
2018-07-23T16:56:18.875Z,19.94
2018-07-23T17:01:22.741Z,20.08
2018-07-23T17:06:26.477Z,19.75
2018-07-23T17:11:30.031Z,19.99
2018-07-23T17:16:33.670Z,20.38
2018-07-23T17:21:37.897Z,20.06
2018-07-23T17:26:41.419Z,19.63
2018-07-23T17:31:45.336Z,19.55
2018-07-23T17:36:49.373Z,19.96
2018-07-23T17:41:52.909Z,19.86
2018-07-23T17:46:56.492Z,20.11
2018-07-23T17:52:00.865Z,20.18
2018-07-23T17:57:04.624Z,19.84
2018-07-23T18:02:08.813Z,19.68
2018-07-23T18:07:12.465Z,19.80
2018-07-23T18:12:17.137Z,20.20
2018-07-23T18:17:20.629Z,20.13
2018-07-23T18:22:24.227Z,20.03
2018-07-23T18:27:28.190Z,19.99
2018-07-23T18:32:31.717Z,20.09
2018-07-23T18:37:35.440Z,19.84
2018-07-23T18:42:39.017Z,20.09
2018-07-23T18:47:43.720Z,19.63
2018-07-23T18:52:47.246Z,19.75
2018-07-23T18:57:50.781Z,19.42
2018-07-23T19:02:54.758Z,19.62
2018-07-23T19:07:58.270Z,19.60
2018-07-23T19:13:02.070Z,18.68
2018-07-23T19:18:06.091Z,17.64
2018-07-23T19:23:09.935Z,16.95
2018-07-23T19:28:13.458Z,16.72
2018-07-23T19:33:17.232Z,17.04
2018-07-23T19:38:20.865Z,16.38
2018-07-23T19:43:24.576Z,16.24
2018-07-23T19:48:28.278Z,16.05
2018-07-23T19:53:32.154Z,16.01
2018-07-23T19:58:35.826Z,16.12
2018-07-23T20:03:39.644Z,16.27
2018-07-23T20:08:43.090Z,16.41
2018-07-23T20:13:46.553Z,16.30
2018-07-23T20:18:50.071Z,16.60
2018-07-23T20:23:53.543Z,16.52
2018-07-23T20:28:57.478Z,16.44
2018-07-23T20:34:01.005Z,16.64
2018-07-23T20:39:06.364Z,16.42
2018-07-23T20:44:09.966Z,16.00
2018-07-23T20:49:14.727Z,16.08
2018-07-23T20:54:18.977Z,16.44
2018-07-23T20:59:22.927Z,16.51
2018-07-23T21:04:26.732Z,16.33
2018-07-23T21:09:31.172Z,16.38
2018-07-23T21:14:35.291Z,16.43
2018-07-23T21:19:39.438Z,16.09
2018-07-23T21:24:43.425Z,16.09
2018-07-23T21:29:47.008Z,16.06
2018-07-23T21:34:50.565Z,15.91
2018-07-23T21:39:54.110Z,15.72
2018-07-23T21:44:58.542Z,16.03
2018-07-23T21:50:02.066Z,16.43
2018-07-23T21:55:07.181Z,16.30
2018-07-23T22:00:14.809Z,16.01
2018-07-23T22:05:18.597Z,15.98
2018-07-23T22:10:22.212Z,16.14
2018-07-23T22:15:25.846Z,15.88
2018-07-23T22:20:29.418Z,15.78
2018-07-23T22:25:33.081Z,15.89
2018-07-23T22:30:36.673Z,15.98
2018-07-23T22:35:40.638Z,16.30
2018-07-23T22:40:44.481Z,15.73
2018-07-23T22:45:48.274Z,15.93
2018-07-23T22:50:51.889Z,16.09
2018-07-23T22:55:55.571Z,15.85
2018-07-23T23:00:59.305Z,16.27
2018-07-23T23:06:03.119Z,16.16
2018-07-23T23:11:06.570Z,15.94
2018-07-23T23:16:10.474Z,15.98
2018-07-23T23:21:13.988Z,16.02
2018-07-23T23:26:17.857Z,15.88
2018-07-23T23:31:21.448Z,15.90
2018-07-23T23:36:25.103Z,16.04
2018-07-23T23:41:28.665Z,16.14
2018-07-23T23:46:32.384Z,16.15
2018-07-23T23:51:35.937Z,15.91
2018-07-23T23:56:39.434Z,15.88
